createdAt,value
2023-05-15T00:00:49.086Z,4.50
2023-05-15T00:03:16.292Z,3.60
2023-05-15T00:05:43.048Z,3.83
2023-05-15T00:08:09.510Z,3.03
2023-05-15T00:10:35.964Z,3.50
2023-05-15T00:13:02.528Z,3.63
2023-05-15T00:15:29.028Z,3.47
2023-05-15T00:17:55.657Z,3.47
2023-05-15T00:20:22.218Z,3.80
2023-05-15T00:22:49.206Z,3.70
2023-05-15T00:25:15.696Z,3.77
2023-05-15T00:27:42.176Z,3.87
2023-05-15T00:30:09.258Z,4.03
2023-05-15T00:32:35.780Z,5.33
2023-05-15T00:35:02.452Z,3.60
2023-05-15T00:37:30.519Z,4.17
2023-05-15T00:39:57.056Z,3.87
2023-05-15T00:42:25.589Z,3.53
2023-05-15T00:44:53.737Z,5.43
2023-05-15T00:47:21.066Z,3.70
2023-05-15T00:49:49.228Z,4.00
2023-05-15T00:52:15.826Z,3.73
2023-05-15T00:54:42.327Z,5.13
2023-05-15T00:57:09.616Z,3.87
2023-05-15T00:59:37.489Z,4.50
2023-05-15T01:02:04.264Z,4.33
2023-05-15T01:04:31.237Z,4.07
2023-05-15T01:06:57.930Z,3.97
2023-05-15T01:09:25.600Z,3.30
2023-05-15T01:11:55.053Z,3.70
2023-05-15T01:14:21.631Z,3.63
2023-05-15T01:21:17.172Z,3.93
2023-05-15T01:24:02.420Z,3.73
2023-05-15T01:26:44.038Z,3.77
2023-05-15T01:29:13.470Z,3.30
2023-05-15T01:31:42.776Z,4.67
2023-05-15T01:34:11.416Z,3.93
2023-05-15T01:36:46.255Z,3.60
2023-05-15T01:39:18.011Z,4.30
2023-05-15T01:41:54.285Z,5.37
2023-05-15T01:44:34.257Z,5.23
2023-05-15T01:47:08.596Z,3.90
2023-05-15T01:49:36.018Z,3.47
2023-05-15T01:52:12.408Z,3.83
2023-05-15T01:54:40.018Z,3.93
2023-05-15T01:57:08.893Z,3.80
2023-05-15T01:59:36.977Z,3.90
2023-05-15T02:02:05.496Z,3.73
2023-05-15T02:04:33.779Z,4.07
2023-05-15T02:07:02.914Z,4.53
2023-05-15T02:09:30.964Z,4.23
2023-05-15T02:11:57.909Z,3.40
2023-05-15T02:14:26.131Z,6.17
2023-05-15T02:16:52.640Z,3.40
2023-05-15T02:19:19.309Z,3.73
2023-05-15T02:21:45.914Z,5.70
2023-05-15T02:24:13.056Z,4.30
2023-05-15T02:27:04.538Z,4.30
2023-05-15T02:29:50.570Z,4.63
2023-05-15T02:32:29.783Z,4.40
2023-05-15T02:35:33.782Z,4.57
2023-05-15T02:38:06.030Z,4.90
2023-05-15T02:40:36.231Z,4.37
2023-05-15T02:43:06.295Z,4.20
2023-05-15T02:45:34.339Z,4.77
2023-05-15T02:48:02.257Z,3.90
2023-05-15T02:50:29.197Z,4.13
2023-05-15T02:53:05.262Z,4.03
2023-05-15T02:55:31.835Z,3.87
2023-05-15T02:57:58.877Z,4.33
2023-05-15T03:00:25.559Z,4.30
2023-05-15T03:02:52.080Z,5.87
2023-05-15T03:05:18.907Z,4.27
2023-05-15T03:07:45.346Z,4.83
2023-05-15T03:10:11.851Z,4.83
2023-05-15T03:12:39.366Z,4.90
2023-05-15T03:15:07.130Z,4.70
2023-05-15T03:17:33.764Z,4.23
2023-05-15T03:20:00.513Z,5.40
2023-05-15T03:22:26.964Z,4.27
2023-05-15T03:24:53.420Z,4.67
2023-05-15T03:27:19.847Z,4.00
2023-05-15T03:29:46.317Z,4.10
2023-05-15T03:32:12.744Z,4.37
2023-05-15T03:34:40.970Z,4.17
2023-05-15T03:37:07.618Z,3.93
2023-05-15T03:39:34.336Z,4.17
2023-05-15T03:42:00.782Z,3.83
2023-05-15T03:44:27.212Z,4.07
2023-05-15T03:46:53.671Z,4.13
2023-05-15T03:49:20.124Z,5.47
2023-05-15T03:51:46.565Z,3.97
2023-05-15T03:54:13.617Z,4.27
2023-05-15T03:56:40.188Z,3.93
2023-05-15T03:59:06.743Z,4.40
2023-05-15T04:01:35.745Z,4.47
2023-05-15T04:04:05.697Z,4.07
2023-05-15T04:06:32.120Z,4.17
2023-05-15T04:08:58.557Z,4.50
2023-05-15T04:11:25.027Z,5.87
2023-05-15T04:13:51.406Z,4.50
2023-05-15T04:16:18.028Z,4.13
2023-05-15T04:18:44.489Z,5.33
2023-05-15T04:21:10.918Z,4.20
2023-05-15T04:23:37.347Z,4.10
2023-05-15T04:26:03.805Z,4.23
2023-05-15T04:28:30.604Z,3.80
2023-05-15T04:30:58.648Z,7.30
2023-05-15T04:33:25.602Z,4.57
2023-05-15T04:35:52.167Z,3.80
2023-05-15T04:38:18.951Z,6.07
2023-05-15T04:40:45.650Z,4.30
2023-05-15T04:43:12.039Z,4.13
2023-05-15T04:45:38.480Z,3.83
2023-05-15T04:48:05.229Z,4.60
2023-05-15T04:50:31.687Z,3.90
2023-05-15T04:52:58.123Z,4.70
2023-05-15T04:55:24.641Z,6.50
2023-05-15T04:57:51.356Z,4.83
2023-05-15T05:00:17.873Z,3.90
2023-05-15T05:02:44.379Z,4.83
2023-05-15T05:05:11.204Z,4.30
2023-05-15T05:07:37.616Z,4.27
2023-05-15T05:10:05.339Z,4.13
2023-05-15T05:12:31.778Z,4.53
2023-05-15T05:14:58.207Z,4.23
2023-05-15T05:17:24.772Z,4.30
2023-05-15T05:19:51.232Z,4.70
2023-05-15T05:22:17.647Z,6.23
2023-05-15T05:24:44.049Z,4.50
2023-05-15T05:27:10.926Z,4.70
2023-05-15T05:29:37.400Z,4.63
2023-05-15T05:32:04.016Z,5.13
2023-05-15T05:34:30.430Z,4.17
2023-05-15T05:36:56.827Z,5.80
2023-05-15T05:39:23.406Z,4.63
2023-05-15T05:41:49.877Z,7.10
2023-05-15T05:44:16.571Z,4.33
2023-05-15T05:46:43.027Z,4.60
2023-05-15T05:49:09.482Z,6.13
2023-05-15T05:51:36.971Z,5.33
2023-05-15T05:54:03.930Z,5.73
2023-05-15T05:56:30.562Z,5.43
2023-05-15T05:58:57.159Z,4.57
2023-05-15T06:01:23.621Z,4.40
2023-05-15T06:03:50.105Z,4.33
2023-05-15T06:06:16.573Z,6.03
2023-05-15T06:08:43.180Z,7.07
2023-05-15T06:11:09.574Z,10.77
2023-05-15T06:13:36.052Z,13.10
2023-05-15T06:16:02.500Z,12.23
2023-05-15T06:18:28.957Z,25.27
2023-05-15T06:20:55.503Z,16.57
2023-05-15T06:23:23.713Z,9.63
2023-05-15T06:25:50.847Z,9.80
2023-05-15T06:28:17.249Z,11.50
2023-05-15T06:30:44.120Z,4.60
2023-05-15T06:33:10.702Z,6.63
2023-05-15T06:35:37.322Z,5.07
2023-05-15T06:38:03.952Z,5.00
2023-05-15T06:40:30.462Z,3.93
2023-05-15T06:42:56.857Z,3.40
2023-05-15T06:45:23.454Z,3.40
2023-05-15T06:47:50.028Z,3.33
2023-05-15T06:50:16.495Z,3.50
2023-05-15T06:52:42.871Z,4.83
2023-05-15T06:55:09.448Z,3.23
2023-05-15T06:57:35.864Z,3.47
2023-05-15T07:00:02.434Z,3.60
2023-05-15T07:02:29.022Z,3.73
2023-05-15T07:04:56.148Z,3.60
2023-05-15T07:07:22.664Z,3.17
2023-05-15T07:09:50.286Z,4.50
2023-05-15T07:12:16.760Z,4.53
2023-05-15T07:14:43.234Z,3.63
2023-05-15T07:17:09.908Z,3.50
2023-05-15T07:19:36.556Z,3.33
2023-05-15T07:22:03.562Z,3.30
2023-05-15T07:24:30.336Z,3.33
2023-05-15T07:26:58.587Z,3.90
2023-05-15T07:29:26.108Z,3.53
2023-05-15T07:31:52.999Z,3.33
2023-05-15T07:34:19.504Z,3.40
2023-05-15T07:36:45.986Z,3.10
2023-05-15T07:39:13.139Z,3.47
2023-05-15T07:41:39.619Z,4.00
2023-05-15T07:44:06.371Z,4.07
2023-05-15T07:46:33.670Z,3.63
2023-05-15T07:49:00.205Z,3.40
2023-05-15T07:51:26.686Z,3.60
2023-05-15T07:53:53.129Z,3.67
2023-05-15T07:56:19.604Z,3.80
2023-05-15T07:58:46.057Z,3.73
2023-05-15T08:01:12.614Z,4.20
2023-05-15T08:03:39.117Z,4.03
2023-05-15T08:06:07.287Z,4.00
2023-05-15T08:08:34.131Z,5.97
2023-05-15T08:11:00.568Z,5.23
2023-05-15T08:13:27.182Z,4.43
2023-05-15T08:15:53.675Z,4.63
2023-05-15T08:18:20.130Z,4.10
2023-05-15T08:20:46.613Z,4.23
2023-05-15T08:23:15.865Z,4.27
2023-05-15T08:25:42.316Z,6.17
2023-05-15T08:28:08.919Z,4.97
2023-05-15T08:30:36.058Z,4.47
2023-05-15T08:33:02.554Z,5.00
2023-05-15T08:35:29.116Z,5.77
2023-05-15T08:37:55.578Z,4.60
2023-05-15T08:40:34.392Z,25.17
2023-05-15T08:43:13.817Z,14.77
2023-05-15T08:45:41.407Z,19.57
2023-05-15T08:48:11.653Z,14.30
2023-05-15T08:50:40.125Z,12.33
2023-05-15T08:53:07.317Z,11.17
2023-05-15T08:55:34.032Z,10.20
2023-05-15T08:58:00.845Z,7.43
2023-05-15T09:00:28.607Z,9.27
2023-05-15T09:02:55.207Z,8.23
2023-05-15T09:05:21.747Z,8.80
2023-05-15T09:07:49.198Z,9.30
2023-05-15T09:10:16.291Z,6.80
2023-05-15T09:12:44.511Z,6.83
2023-05-15T09:15:21.733Z,6.60
2023-05-15T09:17:48.895Z,6.77
2023-05-15T09:20:29.255Z,4.30
2023-05-15T09:22:57.147Z,4.93
2023-05-15T09:25:38.185Z,3.80
2023-05-15T09:28:30.172Z,5.37
2023-05-15T09:31:01.874Z,6.00
2023-05-15T09:33:31.650Z,5.37
2023-05-15T09:35:58.222Z,6.67
2023-05-15T09:38:26.014Z,5.20
2023-05-15T09:41:04.749Z,5.10
2023-05-15T09:43:36.495Z,6.87
2023-05-15T09:46:03.376Z,7.60
2023-05-15T09:48:31.205Z,6.87
2023-05-15T09:50:58.388Z,5.67
2023-05-15T09:53:25.255Z,5.80
2023-05-15T09:55:53.633Z,6.37
2023-05-15T09:58:20.161Z,7.33
2023-05-15T10:00:49.560Z,6.63
2023-05-15T10:03:19.598Z,7.73
2023-05-15T10:05:46.534Z,9.17
2023-05-15T10:08:15.009Z,8.00
2023-05-15T10:10:41.935Z,6.90
2023-05-15T10:13:09.999Z,7.00
2023-05-15T10:15:38.075Z,6.10
2023-05-15T10:18:05.082Z,6.20
2023-05-15T10:20:35.589Z,6.17
2023-05-15T10:23:04.720Z,7.20
2023-05-15T10:25:58.958Z,8.20
2023-05-15T10:28:27.052Z,8.67
2023-05-15T10:30:55.894Z,7.70
2023-05-15T10:33:23.866Z,8.57
2023-05-15T10:35:52.138Z,6.23
2023-05-15T10:38:19.926Z,7.60
2023-05-15T10:40:47.207Z,7.63
2023-05-15T10:43:14.364Z,12.83
2023-05-15T10:45:41.627Z,7.90
2023-05-15T10:48:12.195Z,7.70
2023-05-15T10:50:39.002Z,7.37
2023-05-15T10:53:06.180Z,8.27
2023-05-15T10:55:32.808Z,7.87
2023-05-15T10:57:59.596Z,7.80
2023-05-15T11:00:27.869Z,7.53
2023-05-15T11:02:56.999Z,8.47
2023-05-15T11:05:24.432Z,9.23
2023-05-15T11:08:15.912Z,7.70
2023-05-15T11:10:42.428Z,9.77
2023-05-15T11:13:08.999Z,9.30
2023-05-15T11:15:46.535Z,12.13
2023-05-15T11:18:13.221Z,15.10
2023-05-15T11:20:52.076Z,15.10
2023-05-15T11:23:22.403Z,14.57
2023-05-15T11:25:57.192Z,12.03
2023-05-15T11:28:25.267Z,8.73
2023-05-15T11:30:53.509Z,7.80
2023-05-15T11:33:20.979Z,7.10
2023-05-15T11:35:48.478Z,5.73
2023-05-15T11:38:20.154Z,5.03
2023-05-15T11:40:48.150Z,4.20
2023-05-15T11:43:36.494Z,5.20
2023-05-15T11:46:02.944Z,4.60
2023-05-15T11:48:33.427Z,4.00
2023-05-15T11:51:04.244Z,4.37
2023-05-15T11:53:32.223Z,3.97
2023-05-15T11:55:59.103Z,3.30
2023-05-15T11:58:26.289Z,2.87
2023-05-15T12:00:53.726Z,2.33
2023-05-15T12:03:38.734Z,2.93
2023-05-15T12:06:06.195Z,3.23
2023-05-15T12:08:34.289Z,3.27
2023-05-15T12:11:01.514Z,2.50
2023-05-15T12:13:28.318Z,2.80
2023-05-15T12:15:55.866Z,3.13
2023-05-15T12:18:22.924Z,3.03
2023-05-15T12:20:52.912Z,3.70
2023-05-15T12:23:22.336Z,2.87
2023-05-15T12:25:50.787Z,3.50
2023-05-15T12:28:17.693Z,4.47
2023-05-15T12:30:44.825Z,3.60
2023-05-15T12:33:12.881Z,3.40
2023-05-15T12:35:44.737Z,3.60
2023-05-15T12:38:17.763Z,4.07
2023-05-15T12:40:49.588Z,3.80
2023-05-15T12:43:16.009Z,3.83
2023-05-15T12:45:42.556Z,4.20
2023-05-15T12:48:14.927Z,4.40
2023-05-15T12:50:44.698Z,3.67
2023-05-15T12:53:14.322Z,4.10
2023-05-15T12:55:41.181Z,3.93
2023-05-15T12:58:10.385Z,4.83
2023-05-15T13:00:39.447Z,4.70
2023-05-15T13:03:09.761Z,5.03
2023-05-15T13:05:37.260Z,4.83
2023-05-15T13:08:06.044Z,4.93
2023-05-15T13:10:34.354Z,5.70
2023-05-15T13:13:00.956Z,6.33
2023-05-15T13:15:44.682Z,5.70
2023-05-15T13:18:16.698Z,5.40
2023-05-15T13:20:43.961Z,6.73
2023-05-15T13:23:16.015Z,7.47
2023-05-15T13:25:43.051Z,7.53
2023-05-15T13:28:10.832Z,7.90
2023-05-15T13:30:46.931Z,7.80
2023-05-15T13:33:13.520Z,8.97
2023-05-15T13:35:41.092Z,7.90
2023-05-15T13:38:10.385Z,9.03
2023-05-15T13:40:38.345Z,11.90
2023-05-15T13:43:06.506Z,11.97
2023-05-15T13:45:33.368Z,13.30
2023-05-15T13:47:59.902Z,12.00
2023-05-15T13:50:26.751Z,13.13
2023-05-15T13:52:54.391Z,10.77
2023-05-15T13:55:23.007Z,11.17
2023-05-15T13:57:49.822Z,10.33
2023-05-15T14:00:17.269Z,11.10
2023-05-15T14:02:44.623Z,11.17
2023-05-15T14:05:12.839Z,12.03
2023-05-15T14:07:39.873Z,12.00
2023-05-15T14:10:07.137Z,11.83
2023-05-15T14:12:33.701Z,11.93
2023-05-15T14:15:01.004Z,10.07
2023-05-15T14:17:28.388Z,10.50
2023-05-15T14:19:54.930Z,12.60
2023-05-15T14:22:24.601Z,9.90
2023-05-15T14:24:52.198Z,8.80
2023-05-15T14:27:18.642Z,7.80
2023-05-15T14:29:45.169Z,8.57
2023-05-15T14:32:11.630Z,7.30
2023-05-15T14:34:38.159Z,8.70
2023-05-15T14:37:04.802Z,7.30
2023-05-15T14:39:31.828Z,7.07
2023-05-15T14:41:58.426Z,8.83
2023-05-15T14:44:24.882Z,7.67
2023-05-15T14:47:08.426Z,7.70
2023-05-15T14:49:35.991Z,7.13
2023-05-15T14:52:03.709Z,7.30
2023-05-15T14:54:30.209Z,6.80
2023-05-15T14:56:57.651Z,7.13
2023-05-15T14:59:25.305Z,7.03
2023-05-15T15:01:51.874Z,7.33
2023-05-15T15:04:18.375Z,8.30
2023-05-15T15:06:44.974Z,7.87
2023-05-15T15:09:11.535Z,8.37
2023-05-15T15:11:37.969Z,8.90
2023-05-15T15:14:04.476Z,7.33
2023-05-15T15:16:31.080Z,7.93
2023-05-15T15:18:57.616Z,7.50
2023-05-15T15:21:24.189Z,8.20
2023-05-15T15:23:50.962Z,7.37
2023-05-15T15:26:17.417Z,6.53
2023-05-15T15:28:43.847Z,7.93
2023-05-15T15:31:10.704Z,7.50
2023-05-15T15:33:37.383Z,7.17
2023-05-15T15:36:04.058Z,7.43
2023-05-15T15:38:30.551Z,7.20
2023-05-15T15:40:56.963Z,8.73
2023-05-15T15:43:23.369Z,8.07
2023-05-15T15:45:49.827Z,7.90
2023-05-15T15:48:16.303Z,7.07
2023-05-15T15:50:42.735Z,7.00
2023-05-15T15:53:09.157Z,7.77
2023-05-15T15:55:35.556Z,7.03
2023-05-15T15:58:01.970Z,7.33
2023-05-15T16:00:28.426Z,6.90
2023-05-15T16:02:54.942Z,7.23
2023-05-15T16:05:21.383Z,7.47
2023-05-15T16:07:47.882Z,6.93
2023-05-15T16:10:14.410Z,7.27
2023-05-15T16:12:42.160Z,7.30
2023-05-15T16:15:21.504Z,8.13
2023-05-15T16:17:51.361Z,7.47
2023-05-15T16:20:17.939Z,7.77
2023-05-15T16:22:44.503Z,7.63
2023-05-15T16:25:10.970Z,8.47
2023-05-15T16:27:37.454Z,7.40
2023-05-15T16:30:04.133Z,7.67
2023-05-15T16:32:30.800Z,8.77
2023-05-15T16:34:57.527Z,8.67
2023-05-15T16:37:23.960Z,7.93
2023-05-15T16:39:50.447Z,8.07
2023-05-15T16:42:16.884Z,8.13
2023-05-15T16:44:43.320Z,8.87
2023-05-15T16:47:09.724Z,8.63
2023-05-15T16:49:36.151Z,8.50
2023-05-15T16:52:02.554Z,8.77
2023-05-15T16:54:28.959Z,9.03
2023-05-15T16:56:55.877Z,7.83
2023-05-15T16:59:22.357Z,9.03
2023-05-15T17:01:48.844Z,9.63
2023-05-15T17:04:15.309Z,9.30
2023-05-15T17:06:41.718Z,8.93
2023-05-15T17:09:08.119Z,9.67
2023-05-15T17:11:34.647Z,9.20
2023-05-15T17:14:01.502Z,9.50
2023-05-15T17:16:28.133Z,9.27
2023-05-15T17:18:54.655Z,9.80
2023-05-15T17:21:21.120Z,8.27
2023-05-15T17:23:47.524Z,12.23
2023-05-15T17:26:13.969Z,10.77
2023-05-15T17:28:40.473Z,10.07
2023-05-15T17:31:10.702Z,8.70
2023-05-15T17:33:37.127Z,9.70
2023-05-15T17:36:03.840Z,9.97
2023-05-15T17:38:30.300Z,11.63
2023-05-15T17:40:56.745Z,10.27
2023-05-15T17:43:23.141Z,12.20
2023-05-15T17:45:49.636Z,11.10
2023-05-15T17:48:16.130Z,11.33
2023-05-15T17:50:42.544Z,12.67
2023-05-15T17:53:08.950Z,10.87
2023-05-15T17:55:35.367Z,12.17
2023-05-15T17:58:01.894Z,12.33
2023-05-15T18:00:28.328Z,12.13
2023-05-15T18:02:54.839Z,11.27
2023-05-15T18:05:21.434Z,11.57
2023-05-15T18:07:48.164Z,11.77
2023-05-15T18:10:14.747Z,12.17
2023-05-15T18:12:41.189Z,11.03
2023-05-15T18:15:08.093Z,12.33
2023-05-15T18:17:34.563Z,13.70
2023-05-15T18:20:01.700Z,11.90
2023-05-15T18:22:28.112Z,13.40
2023-05-15T18:24:54.506Z,12.93
2023-05-15T18:27:20.968Z,12.50
2023-05-15T18:29:47.398Z,12.37
2023-05-15T18:32:13.836Z,13.63
2023-05-15T18:34:40.271Z,13.27
2023-05-15T18:37:06.689Z,15.03
2023-05-15T18:39:33.100Z,12.80
2023-05-15T18:42:00.261Z,12.43
2023-05-15T18:44:26.675Z,11.63
2023-05-15T18:46:53.116Z,15.50
2023-05-15T18:49:19.610Z,13.03
2023-05-15T18:51:46.061Z,15.27
2023-05-15T18:54:12.533Z,13.07
2023-05-15T18:56:40.640Z,13.13
2023-05-15T18:59:08.936Z,12.37
2023-05-15T19:01:35.482Z,11.30
2023-05-15T19:04:03.605Z,11.03
2023-05-15T19:06:30.924Z,11.77
2023-05-15T19:08:57.361Z,11.07
2023-05-15T19:11:23.766Z,11.33
2023-05-15T19:13:50.284Z,11.57
2023-05-15T19:16:16.707Z,12.40
2023-05-15T19:18:43.263Z,11.87
2023-05-15T19:21:09.856Z,12.17
2023-05-15T19:23:36.297Z,12.83
2023-05-15T19:26:02.724Z,12.80
2023-05-15T19:28:29.160Z,12.90
2023-05-15T19:30:55.619Z,14.53
2023-05-15T19:33:22.164Z,15.43
2023-05-15T19:35:48.625Z,18.20
2023-05-15T19:38:15.616Z,17.10
2023-05-15T19:40:44.552Z,18.17
2023-05-15T19:43:11.372Z,21.60
2023-05-15T19:45:41.079Z,23.40
2023-05-15T19:48:07.589Z,20.00
2023-05-15T19:50:34.189Z,15.97
2023-05-15T19:53:00.876Z,14.10
2023-05-15T19:55:27.542Z,14.00
2023-05-15T19:57:55.907Z,13.53
2023-05-15T20:00:22.665Z,14.13
2023-05-15T20:02:49.127Z,13.20
2023-05-15T20:05:15.828Z,13.77
2023-05-15T20:07:43.091Z,13.50
2023-05-15T20:10:10.358Z,13.93
2023-05-15T20:12:37.136Z,13.50
2023-05-15T20:15:03.869Z,12.87
2023-05-15T20:17:30.541Z,12.73
2023-05-15T20:19:58.994Z,12.17
2023-05-15T20:22:25.431Z,13.30
2023-05-15T20:24:52.064Z,12.37
2023-05-15T20:27:18.560Z,13.63
2023-05-15T20:29:45.381Z,14.00
2023-05-15T20:32:13.168Z,12.87
2023-05-15T20:34:41.824Z,12.40
2023-05-15T20:37:09.018Z,12.97
2023-05-15T20:39:35.484Z,12.73
2023-05-15T20:42:01.975Z,14.97
2023-05-15T20:44:29.793Z,12.87
2023-05-15T20:46:56.679Z,13.10
2023-05-15T20:49:23.410Z,13.50
2023-05-15T20:51:50.025Z,13.10
2023-05-15T20:54:16.477Z,13.37
2023-05-15T20:56:43.013Z,14.07
2023-05-15T20:59:09.457Z,13.37
2023-05-15T21:01:36.353Z,13.93
2023-05-15T21:04:02.969Z,16.30
2023-05-15T21:06:29.464Z,16.23
2023-05-15T21:08:55.902Z,15.03
2023-05-15T21:11:22.819Z,15.30
2023-05-15T21:13:49.263Z,12.73
2023-05-15T21:16:15.777Z,13.93
2023-05-15T21:18:42.294Z,12.73
2023-05-15T21:21:08.792Z,15.80
2023-05-15T21:23:38.245Z,15.77
2023-05-15T21:26:05.231Z,14.30
2023-05-15T21:28:31.737Z,15.73
2023-05-15T21:30:58.384Z,15.10
2023-05-15T21:33:24.774Z,17.93
2023-05-15T21:35:51.480Z,16.20
2023-05-15T21:38:18.294Z,18.53
2023-05-15T21:40:44.896Z,17.90
2023-05-15T21:43:11.300Z,22.73
2023-05-15T21:45:37.699Z,20.27
2023-05-15T21:48:04.368Z,22.53
2023-05-15T21:50:30.852Z,22.83
2023-05-15T21:52:57.394Z,21.33
2023-05-15T21:55:25.507Z,24.30
2023-05-15T21:57:51.900Z,23.23
2023-05-15T22:00:18.573Z,24.60
2023-05-15T22:02:45.302Z,26.77
2023-05-15T22:05:12.016Z,28.90
2023-05-15T22:07:38.423Z,25.73
2023-05-15T22:10:05.419Z,28.33
2023-05-15T22:12:32.195Z,29.53
2023-05-15T22:14:59.721Z,29.97
2023-05-15T22:17:29.052Z,28.33
2023-05-15T22:20:02.564Z,24.50
2023-05-15T22:22:29.113Z,27.37
2023-05-15T22:24:55.885Z,32.33
2023-05-15T22:27:22.310Z,29.13
2023-05-15T22:29:48.758Z,29.37
2023-05-15T22:32:15.327Z,29.97
2023-05-15T22:34:41.732Z,32.83
2023-05-15T22:37:08.174Z,36.60
2023-05-15T22:39:34.820Z,36.43
2023-05-15T22:42:01.228Z,34.70
2023-05-15T22:44:28.405Z,34.23
2023-05-15T22:46:54.845Z,37.07
2023-05-15T22:49:25.296Z,37.90
2023-05-15T22:51:52.427Z,38.13
2023-05-15T22:54:21.936Z,35.53
2023-05-15T22:56:51.443Z,39.57
2023-05-15T22:59:18.346Z,39.40
2023-05-15T23:01:45.628Z,41.20
2023-05-15T23:04:12.677Z,37.80
2023-05-15T23:06:41.129Z,38.33
2023-05-15T23:09:08.418Z,35.67
2023-05-15T23:11:35.515Z,36.83
2023-05-15T23:14:02.886Z,38.63
2023-05-15T23:16:29.517Z,35.80
2023-05-15T23:18:57.556Z,34.63
2023-05-15T23:21:24.261Z,41.10
2023-05-15T23:23:50.782Z,36.23
2023-05-15T23:26:17.311Z,36.33
2023-05-15T23:28:43.771Z,33.20
2023-05-15T23:31:13.066Z,37.90
2023-05-15T23:33:39.813Z,35.77
2023-05-15T23:36:06.573Z,35.47
2023-05-15T23:38:33.103Z,33.67
2023-05-15T23:40:59.572Z,36.00
2023-05-15T23:43:26.254Z,34.57
2023-05-15T23:45:52.706Z,34.53
2023-05-15T23:48:19.250Z,34.20
2023-05-15T23:50:45.731Z,33.27
2023-05-15T23:53:12.140Z,33.40
2023-05-15T23:55:38.556Z,32.90
2023-05-15T23:58:05.063Z,37.93
